Main page
METAR-TAF:

METAR-TAF

Airports :

Dallas Executive Airport

Dallas, Texas, United States

latitude: 32-40-33N, longitude: 096-51-50W, elevation: 659 ft

Current weather observation

The report was made 25 minutes ago, at 20:53 UTC
Wind 14 mph from the South/Southeast with gusts up to 28 mph
Temperature 91°F
Humidity 56%
Pressure 29.78 in. Hg
Visibility: 10 miles
Few clouds at a height of 4800 ft

METAR: KRBD 172053Z 16012G24KT 10SM FEW048 33/23 A2978 RMK AO2 SLP073 T03330228 56021

Time: 16:18 (21:18 UTC)


TAF: missing

Weather observations and forecasts of more than 4000 airports (METAR and TAF reports).

The available stations are represented by yellow and red dots on the map.

Hover mouse over dot to see the name of the station.

Then click to see weather observations and forecasts.

To change the map : click on the green buttons with a black cross to zoom in, on the green button with a dash to zoom out, or on the green arrows for adjacent maps.


METAR-TAF: